Time;durP1;ratioP1;P1;durP2;ratioP2;P2;SDS_P1;SDS_P2;PMS_P1;PMS_P2;Temp;Humidity;BMP_temperature;BMP_pressure;BME280_temperature;BME280_humidity;BME280_pressure;Samples;Min_cycle;Max_cycle;Signal;HPM_P1;HPM_P2
2021/10/23 00:02:00;;;;;;;8.17;1.73;;;;;;;;;;6214862;23;20158;-76
2021/10/23 00:04:25;;;;;;;5.57;1.30;;;;;;;;;;6241294;22;20783;-76
2021/10/23 00:06:51;;;;;;;5.77;1.40;;;;;;;;;;6242121;23;20178;-76
2021/10/23 00:09:18;;;;;;;5.67;1.77;;;;;;;;;;6241681;23;20194;-76
2021/10/23 00:11:43;;;;;;;5.40;1.83;;;;;;;;;;6239460;23;20586;-76
2021/10/23 00:14:08;;;;;;;7.60;1.70;;;;;;;;;;6241611;22;20397;-77
2021/10/23 00:16:34;;;;;;;7.93;1.80;;;;;;;;;;6242669;23;20554;-76
2021/10/23 00:18:59;;;;;;;6.03;1.53;;;;;;;;;;6241974;23;20147;-76
2021/10/23 00:21:24;;;;;;;5.47;1.70;;;;;;;;;;6241365;23;20496;-77
2021/10/23 00:23:49;;;;;;;8.27;2.20;;;;;;;;;;6239746;22;20170;-76
2021/10/23 00:26:15;;;;;;;5.13;1.63;;;;;;;;;;6241948;23;20181;-76
2021/10/23 00:28:40;;;;;;;9.90;1.53;;;;;;;;;;6242695;23;20181;-77
2021/10/23 00:31:06;;;;;;;7.90;1.63;;;;;;;;;;6241069;23;20158;-77
2021/10/23 00:33:31;;;;;;;6.57;1.87;;;;;;;;;;6215266;22;20163;-77
2021/10/23 00:35:56;;;;;;;6.17;1.80;;;;;;;;;;6242797;23;20462;-77
2021/10/23 00:38:22;;;;;;;2.97;1.30;;;;;;;;;;6242283;23;20233;-77
2021/10/23 00:40:47;;;;;;;3.57;1.27;;;;;;;;;;6242356;23;20167;-76
2021/10/23 00:43:12;;;;;;;6.23;2.17;;;;;;;;;;6241349;23;20147;-77
2021/10/23 00:45:37;;;;;;;4.77;1.60;;;;;;;;;;6244438;22;20171;-76
2021/10/23 00:48:03;;;;;;;5.77;1.67;;;;;;;;;;6244881;23;20166;-77
2021/10/23 00:50:28;;;;;;;4.67;1.50;;;;;;;;;;6217147;23;20238;-77
2021/10/23 00:52:54;;;;;;;6.93;1.77;;;;;;;;;;6244211;23;20757;-76
2021/10/23 00:55:20;;;;;;;6.93;1.50;;;;;;;;;;6216793;23;20539;-77
2021/10/23 00:57:45;;;;;;;10.13;2.10;;;;;;;;;;6244104;23;20397;-76
2021/10/23 01:00:10;;;;;;;6.87;2.30;;;;;;;;;;6243943;23;20167;-77
2021/10/23 01:02:36;;;;;;;3.00;1.50;;;;;;;;;;6240355;23;20147;-76
2021/10/23 01:05:02;;;;;;;8.23;1.90;;;;;;;;;;6244191;22;20258;-77
2021/10/23 01:07:27;;;;;;;5.17;1.73;;;;;;;;;;6243436;23;20147;-77
2021/10/23 01:09:53;;;;;;;5.40;1.80;;;;;;;;;;6216315;23;20713;-76
2021/10/23 01:12:18;;;;;;;6.40;1.40;;;;;;;;;;6240138;23;20144;-76
2021/10/23 01:14:45;;;;;;;3.57;1.50;;;;;;;;;;6241708;22;20617;-76
2021/10/23 01:17:10;;;;;;;1.90;1.37;;;;;;;;;;6243234;23;20222;-76
2021/10/23 01:19:36;;;;;;;11.50;2.00;;;;;;;;;;6243023;23;20448;-76
2021/10/23 01:22:01;;;;;;;5.90;1.40;;;;;;;;;;6241561;23;20143;-76
2021/10/23 01:24:27;;;;;;;6.30;1.40;;;;;;;;;;6242641;22;20163;-76
2021/10/23 01:26:52;;;;;;;3.97;1.63;;;;;;;;;;6242361;23;20601;-76
2021/10/23 01:29:18;;;;;;;4.50;1.50;;;;;;;;;;6242928;23;20201;-76
2021/10/23 01:31:44;;;;;;;7.63;2.30;;;;;;;;;;6242163;23;20221;-76
2021/10/23 01:34:16;;;;;;;4.83;1.53;;;;;;;;;;6243020;22;20844;-76
2021/10/23 01:36:43;;;;;;;11.23;1.73;;;;;;;;;;6242137;23;20154;-76
2021/10/23 01:39:08;;;;;;;8.50;1.97;;;;;;;;;;6242300;23;20377;-76
2021/10/23 01:41:33;;;;;;;9.30;1.73;;;;;;;;;;6241482;23;20496;-76
2021/10/23 01:43:58;;;;;;;5.83;1.53;;;;;;;;;;6242530;22;20633;-75
2021/10/23 01:46:24;;;;;;;7.50;1.93;;;;;;;;;;6216702;23;20162;-76
2021/10/23 01:48:49;;;;;;;7.00;1.67;;;;;;;;;;6240967;23;20155;-76
2021/10/23 01:51:14;;;;;;;6.17;1.53;;;;;;;;;;6243475;23;20222;-76
2021/10/23 01:53:39;;;;;;;4.13;1.43;;;;;;;;;;6242097;22;20254;-76
2021/10/23 01:56:05;;;;;;;7.83;1.97;;;;;;;;;;6242363;23;20178;-76
2021/10/23 01:58:30;;;;;;;4.60;1.50;;;;;;;;;;6243443;23;20154;-77
2021/10/23 02:00:56;;;;;;;9.53;1.70;;;;;;;;;;6244257;23;20206;-77
2021/10/23 02:03:21;;;;;;;4.60;1.70;;;;;;;;;;6243268;22;20154;-76
2021/10/23 02:05:46;;;;;;;4.83;1.90;;;;;;;;;;6243643;23;20147;-77
2021/10/23 02:08:12;;;;;;;7.80;1.70;;;;;;;;;;6240495;23;20202;-76
2021/10/23 02:10:37;;;;;;;9.80;2.47;;;;;;;;;;6242481;23;20147;-77
2021/10/23 02:13:02;;;;;;;4.00;1.53;;;;;;;;;;6242891;23;20144;-76
2021/10/23 02:15:27;;;;;;;7.50;1.60;;;;;;;;;;6244139;22;20913;-77
2021/10/23 02:17:53;;;;;;;7.47;1.63;;;;;;;;;;6244319;23;20512;-77
2021/10/23 02:20:18;;;;;;;5.17;1.37;;;;;;;;;;6244063;23;20193;-77
2021/10/23 02:22:43;;;;;;;3.00;1.27;;;;;;;;;;6243966;23;20197;-76
2021/10/23 02:25:10;;;;;;;8.40;1.63;;;;;;;;;;6243034;22;20159;-77
2021/10/23 02:27:35;;;;;;;6.50;1.60;;;;;;;;;;6244418;23;20139;-77
2021/10/23 02:30:01;;;;;;;6.43;1.20;;;;;;;;;;6244849;23;20500;-77
2021/10/23 02:32:26;;;;;;;6.93;1.53;;;;;;;;;;6244790;23;20890;-77
2021/10/23 02:34:51;;;;;;;5.40;1.47;;;;;;;;;;6244375;22;20637;-77
2021/10/23 02:37:16;;;;;;;7.50;1.50;;;;;;;;;;6243983;23;20213;-77
2021/10/23 02:39:42;;;;;;;4.00;1.67;;;;;;;;;;6244482;23;20151;-77
2021/10/23 02:42:07;;;;;;;6.73;1.70;;;;;;;;;;6243961;23;20590;-77
2021/10/23 02:44:32;;;;;;;5.07;1.40;;;;;;;;;;6243770;22;20159;-77
2021/10/23 02:46:57;;;;;;;8.20;2.07;;;;;;;;;;6243180;23;20254;-77
2021/10/23 02:49:23;;;;;;;4.97;1.43;;;;;;;;;;6244018;23;20178;-77
2021/10/23 02:51:48;;;;;;;5.90;1.20;;;;;;;;;;6243684;23;20151;-77
2021/10/23 02:54:13;;;;;;;4.57;1.30;;;;;;;;;;6242210;22;20167;-76
2021/10/23 02:56:41;;;;;;;6.50;1.73;;;;;;;;;;6243175;23;20170;-77
2021/10/23 02:59:06;;;;;;;5.30;1.50;;;;;;;;;;6241718;23;20197;-76
2021/10/23 03:01:31;;;;;;;4.37;1.40;;;;;;;;;;6238866;23;20442;-76
2021/10/23 03:03:56;;;;;;;9.23;1.80;;;;;;;;;;6240101;22;20163;-76
2021/10/23 03:06:22;;;;;;;7.80;1.70;;;;;;;;;;6216188;23;20151;-76
2021/10/23 03:08:47;;;;;;;5.77;1.03;;;;;;;;;;6242346;23;20169;-76
2021/10/23 03:11:12;;;;;;;5.00;1.70;;;;;;;;;;6241341;23;20181;-77
2021/10/23 03:13:40;;;;;;;10.60;1.90;;;;;;;;;;6241441;22;20179;-76
2021/10/23 03:16:05;;;;;;;8.63;2.17;;;;;;;;;;6242895;23;20221;-76
2021/10/23 03:18:31;;;;;;;10.20;1.73;;;;;;;;;;6243254;23;20370;-76
2021/10/23 03:20:56;;;;;;;7.97;1.60;;;;;;;;;;6244058;23;20976;-77
2021/10/23 03:23:21;;;;;;;6.93;1.20;;;;;;;;;;6215078;22;20143;-76
2021/10/23 03:25:47;;;;;;;4.47;1.10;;;;;;;;;;6239133;23;20153;-77
2021/10/23 03:28:13;;;;;;;7.87;1.33;;;;;;;;;;6243421;23;20547;-76
2021/10/23 03:30:38;;;;;;;7.47;1.67;;;;;;;;;;6241847;23;20178;-77
2021/10/23 03:33:03;;;;;;;7.43;1.60;;;;;;;;;;6241752;23;20390;-76
2021/10/23 03:35:28;;;;;;;3.83;1.47;;;;;;;;;;6241779;22;20221;-77
2021/10/23 03:37:54;;;;;;;10.40;1.50;;;;;;;;;;6241149;23;20147;-77
2021/10/23 03:40:19;;;;;;;5.03;1.90;;;;;;;;;;6239612;23;20649;-76
2021/10/23 03:42:44;;;;;;;6.60;1.23;;;;;;;;;;6242002;23;20213;-76
2021/10/23 03:45:09;;;;;;;6.37;1.10;;;;;;;;;;6241221;22;20167;-76
2021/10/23 03:47:35;;;;;;;7.03;1.40;;;;;;;;;;6214675;23;20234;-76
2021/10/23 03:50:00;;;;;;;8.07;1.53;;;;;;;;;;6241868;23;20146;-76
2021/10/23 03:52:25;;;;;;;7.97;1.50;;;;;;;;;;6241834;23;20162;-76
2021/10/23 03:54:51;;;;;;;5.73;1.40;;;;;;;;;;6239689;22;20482;-76
2021/10/23 03:57:16;;;;;;;4.30;1.30;;;;;;;;;;6241948;23;20147;-77
2021/10/23 03:59:41;;;;;;;5.23;1.50;;;;;;;;;;6242580;23;20682;-77
2021/10/23 04:02:06;;;;;;;4.10;1.30;;;;;;;;;;6215685;23;20147;-76
2021/10/23 04:04:32;;;;;;;4.27;1.10;;;;;;;;;;6240672;22;20167;-76
2021/10/23 04:06:58;;;;;;;6.67;1.30;;;;;;;;;;6243074;23;20166;-77
2021/10/23 04:09:23;;;;;;;7.20;1.43;;;;;;;;;;6242537;23;20147;-77
2021/10/23 04:11:48;;;;;;;5.37;1.30;;;;;;;;;;6242912;23;20147;-77
2021/10/23 04:14:13;;;;;;;7.27;1.40;;;;;;;;;;6240137;22;20163;-76
2021/10/23 04:16:40;;;;;;;6.73;1.27;;;;;;;;;;6242701;23;20238;-76
2021/10/23 04:19:05;;;;;;;6.63;1.60;;;;;;;;;;6243559;23;20233;-76
2021/10/23 04:21:30;;;;;;;5.73;1.00;;;;;;;;;;6245627;23;20494;-77
2021/10/23 04:23:56;;;;;;;7.93;1.37;;;;;;;;;;6242104;22;20159;-76
2021/10/23 04:26:21;;;;;;;3.10;1.07;;;;;;;;;;6243237;23;20218;-76
2021/10/23 04:28:46;;;;;;;4.83;1.27;;;;;;;;;;6244046;23;20147;-76
2021/10/23 04:31:12;;;;;;;7.80;1.90;;;;;;;;;;6217000;23;20593;-76
2021/10/23 04:33:37;;;;;;;5.77;2.00;;;;;;;;;;6241445;22;20244;-76
2021/10/23 04:36:03;;;;;;;6.07;1.57;;;;;;;;;;6242655;23;20147;-76
2021/10/23 04:38:28;;;;;;;5.40;1.50;;;;;;;;;;6216664;23;20167;-76
2021/10/23 04:40:53;;;;;;;6.30;1.27;;;;;;;;;;6242554;23;20483;-76
2021/10/23 04:43:19;;;;;;;7.73;1.50;;;;;;;;;;6241758;22;20144;-76
2021/10/23 04:45:44;;;;;;;7.57;1.50;;;;;;;;;;6244094;23;20488;-76
2021/10/23 04:48:09;;;;;;;5.43;1.57;;;;;;;;;;6243436;23;20139;-76
2021/10/23 04:50:35;;;;;;;3.00;1.10;;;;;;;;;;6243704;23;20185;-76
2021/10/23 04:53:00;;;;;;;6.70;1.50;;;;;;;;;;6241844;23;20147;-76
2021/10/23 04:55:25;;;;;;;6.60;1.83;;;;;;;;;;6242615;22;20206;-76
2021/10/23 04:57:51;;;;;;;5.37;1.30;;;;;;;;;;6243526;23;20151;-76
2021/10/23 05:00:16;;;;;;;8.17;2.00;;;;;;;;;;6216438;23;20171;-76
2021/10/23 05:02:41;;;;;;;5.60;1.90;;;;;;;;;;6241437;23;20147;-77
2021/10/23 05:05:07;;;;;;;9.00;2.00;;;;;;;;;;6238822;22;20217;-76
2021/10/23 05:07:32;;;;;;;9.93;1.63;;;;;;;;;;6243411;22;20209;-76
2021/10/23 05:09:57;;;;;;;6.20;1.30;;;;;;;;;;6239554;23;20198;-75
2021/10/23 05:12:23;;;;;;;4.73;1.20;;;;;;;;;;6216060;23;20154;-76
2021/10/23 05:14:48;;;;;;;4.70;1.53;;;;;;;;;;6242660;23;20154;-75
2021/10/23 05:17:13;;;;;;;5.47;1.37;;;;;;;;;;6242906;23;20222;-75
2021/10/23 05:19:38;;;;;;;5.70;1.27;;;;;;;;;;6212422;23;20159;-76
2021/10/23 05:22:06;;;;;;;7.30;1.63;;;;;;;;;;6182755;23;20266;-76
2021/10/23 05:24:32;;;;;;;5.97;1.70;;;;;;;;;;6210811;23;20486;-76
2021/10/23 05:26:57;;;;;;;8.33;1.33;;;;;;;;;;6212940;23;20370;-76
2021/10/23 05:29:22;;;;;;;3.70;1.37;;;;;;;;;;6211443;23;20164;-76
2021/10/23 05:31:47;;;;;;;3.43;0.90;;;;;;;;;;6212530;23;20171;-75
2021/10/23 05:34:13;;;;;;;3.90;1.37;;;;;;;;;;6210651;23;20144;-76
2021/10/23 05:36:38;;;;;;;8.10;1.30;;;;;;;;;;6211238;23;20227;-75
2021/10/23 05:39:03;;;;;;;7.07;1.53;;;;;;;;;;6212300;23;20195;-75
2021/10/23 05:41:29;;;;;;;6.90;1.27;;;;;;;;;;6211360;23;20183;-76
2021/10/23 05:43:55;;;;;;;3.80;1.20;;;;;;;;;;6211867;23;20144;-76
2021/10/23 05:46:20;;;;;;;3.67;1.40;;;;;;;;;;6212461;23;20626;-75
2021/10/23 05:48:45;;;;;;;4.83;1.23;;;;;;;;;;6211293;23;20184;-75
2021/10/23 05:51:10;;;;;;;2.80;1.40;;;;;;;;;;6210761;23;20148;-74
2021/10/23 05:53:35;;;;;;;3.50;1.30;;;;;;;;;;6211460;23;20151;-74
2021/10/23 05:56:01;;;;;;;5.20;1.47;;;;;;;;;;6210985;23;20144;-74
2021/10/23 05:58:29;;;;;;;2.30;1.20;;;;;;;;;;6210683;23;20246;-75
2021/10/23 06:00:58;;;;;;;3.50;1.20;;;;;;;;;;6211662;23;20204;-76
2021/10/23 06:03:24;;;;;;;6.23;1.30;;;;;;;;;;6211753;23;20397;-76
2021/10/23 06:05:49;;;;;;;4.00;1.50;;;;;;;;;;6211215;23;20440;-76
2021/10/23 06:08:14;;;;;;;4.00;1.40;;;;;;;;;;6211704;23;20406;-76
2021/10/23 06:10:40;;;;;;;8.07;1.57;;;;;;;;;;6211464;23;20155;-76
2021/10/23 06:13:05;;;;;;;4.10;1.30;;;;;;;;;;6211332;23;20605;-75
2021/10/23 06:15:30;;;;;;;4.20;1.47;;;;;;;;;;6210785;23;20144;-76
2021/10/23 06:17:55;;;;;;;5.60;1.60;;;;;;;;;;6212285;23;20163;-76
2021/10/23 06:20:21;;;;;;;5.60;2.10;;;;;;;;;;6210677;23;20172;-76
2021/10/23 06:22:52;;;;;;;6.73;1.67;;;;;;;;;;6212171;23;20151;-75
2021/10/23 06:25:18;;;;;;;4.87;1.70;;;;;;;;;;6211283;23;20148;-76
2021/10/23 06:27:44;;;;;;;8.10;2.00;;;;;;;;;;6212961;23;20929;-75
2021/10/23 06:30:10;;;;;;;10.43;1.80;;;;;;;;;;6211097;23;20162;-75
2021/10/23 06:32:43;;;;;;;8.37;1.80;;;;;;;;;;6212377;23;20399;-76
2021/10/23 06:35:08;;;;;;;5.43;1.40;;;;;;;;;;6210786;23;20140;-76
2021/10/23 06:37:33;;;;;;;2.40;1.57;;;;;;;;;;6208892;23;20367;-75
2021/10/23 06:39:58;;;;;;;4.73;1.30;;;;;;;;;;6209593;23;20150;-76
2021/10/23 06:42:24;;;;;;;4.00;1.23;;;;;;;;;;6209856;23;20143;-76
2021/10/23 06:44:49;;;;;;;10.33;1.83;;;;;;;;;;6209514;23;20172;-76
2021/10/23 06:47:14;;;;;;;5.70;2.00;;;;;;;;;;6209378;23;21071;-76
2021/10/23 06:49:39;;;;;;;4.27;1.77;;;;;;;;;;6211868;23;20175;-76
2021/10/23 06:52:05;;;;;;;3.83;1.60;;;;;;;;;;6214409;23;20144;-77
2021/10/23 06:54:30;;;;;;;5.67;1.30;;;;;;;;;;6212882;23;20151;-77
2021/10/23 06:56:55;;;;;;;4.80;1.10;;;;;;;;;;6214590;23;20226;-75
2021/10/23 06:59:20;;;;;;;5.40;1.20;;;;;;;;;;6184701;23;20179;-75
2021/10/23 07:01:45;;;;;;;3.60;0.93;;;;;;;;;;6211462;23;20171;-76
2021/10/23 07:04:11;;;;;;;7.13;1.13;;;;;;;;;;6212548;23;20602;-76
2021/10/23 07:06:36;;;;;;;2.43;0.90;;;;;;;;;;6212682;23;20151;-76
2021/10/23 07:09:01;;;;;;;2.87;1.27;;;;;;;;;;6185664;23;20191;-76
2021/10/23 07:11:27;;;;;;;4.53;1.20;;;;;;;;;;6212847;23;20147;-76
2021/10/23 07:13:52;;;;;;;4.57;1.43;;;;;;;;;;6210020;23;20159;-76
2021/10/23 07:16:17;;;;;;;5.73;1.53;;;;;;;;;;6206646;23;20155;-75
2021/10/23 07:18:43;;;;;;;6.07;1.20;;;;;;;;;;6210391;23;20192;-77
2021/10/23 07:21:08;;;;;;;9.17;1.60;;;;;;;;;;6208903;23;20225;-75
2021/10/23 07:23:33;;;;;;;4.03;1.50;;;;;;;;;;6181726;23;20500;-75
2021/10/23 07:25:58;;;;;;;5.70;1.20;;;;;;;;;;6210274;23;20905;-75
2021/10/23 07:28:24;;;;;;;6.50;1.33;;;;;;;;;;6209831;23;20160;-76
2021/10/23 07:30:49;;;;;;;5.30;1.57;;;;;;;;;;6209123;23;20160;-75
2021/10/23 07:33:14;;;;;;;7.47;1.57;;;;;;;;;;6208877;23;20616;-75
2021/10/23 07:35:39;;;;;;;2.33;1.20;;;;;;;;;;6211043;23;20148;-75
2021/10/23 07:38:06;;;;;;;4.73;1.40;;;;;;;;;;6208895;23;20237;-75
2021/10/23 07:40:31;;;;;;;6.63;1.77;;;;;;;;;;6210490;23;20560;-75
2021/10/23 07:42:56;;;;;;;6.60;1.77;;;;;;;;;;6206217;23;20370;-75
2021/10/23 07:45:21;;;;;;;3.93;1.30;;;;;;;;;;6211603;23;20549;-75
2021/10/23 07:47:47;;;;;;;4.40;1.40;;;;;;;;;;6210367;23;20164;-76
2021/10/23 07:50:12;;;;;;;5.87;1.70;;;;;;;;;;6211359;23;20617;-76
2021/10/23 07:52:38;;;;;;;6.63;1.70;;;;;;;;;;6210101;23;20459;-75
2021/10/23 07:55:04;;;;;;;6.47;1.57;;;;;;;;;;6209571;23;20148;-76
2021/10/23 07:57:29;;;;;;;12.07;2.57;;;;;;;;;;6208426;23;20650;-74
2021/10/23 07:59:54;;;;;;;8.30;2.30;;;;;;;;;;6207883;23;20230;-75
2021/10/23 08:02:19;;;;;;;7.57;2.23;;;;;;;;;;6208138;23;20183;-75
2021/10/23 08:04:45;;;;;;;14.50;1.70;;;;;;;;;;6208451;23;20505;-76
2021/10/23 08:07:10;;;;;;;8.43;1.87;;;;;;;;;;6209799;23;20662;-76
2021/10/23 08:09:35;;;;;;;3.40;1.10;;;;;;;;;;6209997;23;20206;-76
2021/10/23 08:12:01;;;;;;;8.07;1.27;;;;;;;;;;6210983;23;20148;-75
2021/10/23 08:14:26;;;;;;;8.80;1.50;;;;;;;;;;6181733;23;20167;-76
2021/10/23 08:16:53;;;;;;;8.07;1.70;;;;;;;;;;6204592;23;20180;-76
2021/10/23 08:19:21;;;;;;;7.90;1.80;;;;;;;;;;6210297;23;20387;-75
2021/10/23 08:21:49;;;;;;;5.20;1.40;;;;;;;;;;6211176;23;20170;-76
2021/10/23 08:24:14;;;;;;;3.90;1.43;;;;;;;;;;6209567;23;20379;-76
2021/10/23 08:26:40;;;;;;;7.00;1.60;;;;;;;;;;6206825;23;20363;-76
2021/10/23 08:29:05;;;;;;;8.40;1.50;;;;;;;;;;6207909;23;21033;-76
2021/10/23 08:31:31;;;;;;;6.73;2.23;;;;;;;;;;6205628;23;20371;-76
2021/10/23 08:33:56;;;;;;;3.77;1.37;;;;;;;;;;6205322;23;20148;-75
2021/10/23 08:36:22;;;;;;;5.07;1.17;;;;;;;;;;6180063;23;20233;-76
2021/10/23 08:38:47;;;;;;;8.50;1.60;;;;;;;;;;6205631;23;20701;-76
2021/10/23 08:41:13;;;;;;;4.97;1.30;;;;;;;;;;6179940;23;20183;-76
2021/10/23 08:43:42;;;;;;;3.90;1.20;;;;;;;;;;6201781;23;20151;-75
2021/10/23 08:46:09;;;;;;;3.83;1.43;;;;;;;;;;6208733;23;20152;-75
2021/10/23 08:48:35;;;;;;;5.97;1.70;;;;;;;;;;6207448;23;20391;-76
2021/10/23 08:51:00;;;;;;;3.50;1.47;;;;;;;;;;6207845;23;20370;-75
2021/10/23 08:53:27;;;;;;;4.83;1.43;;;;;;;;;;6205873;23;20232;-75
2021/10/23 08:55:53;;;;;;;4.00;1.73;;;;;;;;;;6178883;23;20160;-75
2021/10/23 08:58:18;;;;;;;4.60;1.50;;;;;;;;;;6205069;23;20389;-76
2021/10/23 09:00:44;;;;;;;6.93;1.90;;;;;;;;;;6205903;23;20523;-75
2021/10/23 09:03:09;;;;;;;4.77;1.30;;;;;;;;;;6207103;23;20152;-76
2021/10/23 09:05:36;;;;;;;6.70;1.33;;;;;;;;;;6209920;23;20976;-76
2021/10/23 09:08:10;;;;;;;7.87;1.80;;;;;;;;;;6208702;23;20210;-76
2021/10/23 09:10:39;;;;;;;7.03;1.60;;;;;;;;;;6206635;23;20724;-76
2021/10/23 09:13:05;;;;;;;5.60;1.40;;;;;;;;;;6182184;23;20371;-76
2021/10/23 09:15:32;;;;;;;7.90;1.73;;;;;;;;;;6211640;23;20829;-75
2021/10/23 09:17:58;;;;;;;7.03;1.70;;;;;;;;;;6182941;23;20427;-76
2021/10/23 09:20:23;;;;;;;4.23;1.23;;;;;;;;;;6208593;23;20422;-76
2021/10/23 09:22:50;;;;;;;4.77;1.70;;;;;;;;;;6210803;23;20367;-76
2021/10/23 09:25:15;;;;;;;7.27;1.87;;;;;;;;;;6211493;23;20540;-76
2021/10/23 09:27:47;;;;;;;4.53;1.10;;;;;;;;;;6207952;23;20379;-76
2021/10/23 09:30:13;;;;;;;4.80;1.40;;;;;;;;;;6174978;23;20177;-76
2021/10/23 09:32:39;;;;;;;3.20;0.97;;;;;;;;;;6206316;23;20468;-76
2021/10/23 09:35:14;;;;;;;6.00;1.20;;;;;;;;;;6206747;23;20814;-76
2021/10/23 09:37:40;;;;;;;3.87;1.43;;;;;;;;;;6210957;23;20254;-75
2021/10/23 09:40:06;;;;;;;5.33;1.07;;;;;;;;;;6208956;23;20359;-76
2021/10/23 09:42:31;;;;;;;5.23;1.50;;;;;;;;;;6211385;23;20359;-75
2021/10/23 09:45:04;;;;;;;9.67;1.87;;;;;;;;;;6210624;23;20381;-74
2021/10/23 09:47:39;;;;;;;8.67;1.50;;;;;;;;;;6209838;23;20143;-75
2021/10/23 09:50:05;;;;;;;4.43;0.93;;;;;;;;;;6210892;23;20374;-76
2021/10/23 09:52:32;;;;;;;9.17;1.40;;;;;;;;;;6209945;23;20454;-75
2021/10/23 09:55:08;;;;;;;7.03;1.10;;;;;;;;;;6209170;23;20386;-76
2021/10/23 09:57:33;;;;;;;6.03;1.67;;;;;;;;;;6210890;23;20702;-75
2021/10/23 10:00:09;;;;;;;6.57;1.63;;;;;;;;;;6209532;23;20443;-75
2021/10/23 10:02:43;;;;;;;7.73;1.53;;;;;;;;;;6210680;23;20193;-75
2021/10/23 10:05:09;;;;;;;4.13;1.50;;;;;;;;;;6209890;23;20347;-75
2021/10/23 10:07:34;;;;;;;5.30;1.67;;;;;;;;;;6210423;23;20378;-76
2021/10/23 10:10:00;;;;;;;4.67;1.23;;;;;;;;;;6207259;23;20210;-75
2021/10/23 10:12:28;;;;;;;4.27;1.20;;;;;;;;;;6212571;23;20163;-75
2021/10/23 10:14:53;;;;;;;6.27;3.10;;;;;;;;;;6210879;23;20802;-75
2021/10/23 10:17:20;;;;;;;4.73;1.50;;;;;;;;;;6209077;23;20422;-75
2021/10/23 10:19:45;;;;;;;4.90;1.20;;;;;;;;;;6211208;23;20164;-76
2021/10/23 10:22:11;;;;;;;3.70;1.03;;;;;;;;;;6212133;23;20501;-75
2021/10/23 10:24:38;;;;;;;4.27;1.10;;;;;;;;;;6211001;23;20181;-76
2021/10/23 10:27:10;;;;;;;4.40;1.60;;;;;;;;;;6212055;23;20144;-76
2021/10/23 10:29:39;;;;;;;3.43;1.23;;;;;;;;;;6211847;23;20434;-75
2021/10/23 10:37:38;;;;;;;4.43;1.30;;;;;;;;;;6222776;23;20354;-76
2021/10/23 10:42:56;;;;;;;5.83;1.23;;;;;;;;;;6209268;23;20715;-76
2021/10/23 10:45:46;;;;;;;4.93;1.30;;;;;;;;;;6185756;23;20375;-75
2021/10/23 10:48:22;;;;;;;5.80;1.10;;;;;;;;;;6208819;23;21038;-76
2021/10/23 10:50:47;;;;;;;2.37;1.00;;;;;;;;;;6211504;23;20770;-77
2021/10/23 10:53:12;;;;;;;4.77;1.20;;;;;;;;;;6210109;23;20366;-76
2021/10/23 10:55:39;;;;;;;4.17;1.30;;;;;;;;;;6210458;23;20175;-76
2021/10/23 10:58:09;;;;;;;8.13;1.40;;;;;;;;;;6210076;23;20658;-76
2021/10/23 11:00:51;;;;;;;4.80;1.47;;;;;;;;;;6206719;23;21345;-76
2021/10/23 11:03:39;;;;;;;2.87;1.27;;;;;;;;;;6206081;23;20381;-77
2021/10/23 11:06:24;;;;;;;2.07;1.10;;;;;;;;;;6210657;23;20343;-77
2021/10/23 11:09:10;;;;;;;4.67;1.10;;;;;;;;;;6210650;23;20489;-77
2021/10/23 11:11:44;;;;;;;1.97;0.90;;;;;;;;;;6183920;23;20383;-77
2021/10/23 11:16:52;;;;;;;1.60;1.10;;;;;;;;;;6212303;23;20437;-77
2021/10/23 11:19:24;;;;;;;3.60;1.10;;;;;;;;;;6210974;23;20387;-77
2021/10/23 11:21:53;;;;;;;4.07;1.43;;;;;;;;;;6211644;23;20477;-77
2021/10/23 11:24:19;;;;;;;12.33;1.63;;;;;;;;;;6209196;23;20378;-77
2021/10/23 11:26:48;;;;;;;5.83;1.30;;;;;;;;;;6209788;23;20458;-77
2021/10/23 11:29:21;;;;;;;3.37;1.10;;;;;;;;;;6184367;23;20172;-77
2021/10/23 11:31:48;;;;;;;3.37;1.13;;;;;;;;;;6185553;23;20375;-78
2021/10/23 11:34:23;;;;;;;8.70;1.50;;;;;;;;;;6208143;23;20419;-77
2021/10/23 11:37:06;;;;;;;6.67;1.30;;;;;;;;;;6181969;23;20845;-78
2021/10/23 11:39:34;;;;;;;3.60;1.40;;;;;;;;;;6205007;23;20850;-78
2021/10/23 11:42:18;;;;;;;3.73;1.10;;;;;;;;;;6209959;23;21178;-76
2021/10/23 11:44:44;;;;;;;3.93;1.50;;;;;;;;;;6210999;23;20378;-77
2021/10/23 11:47:16;;;;;;;3.60;1.43;;;;;;;;;;6211215;23;20901;-77
2021/10/23 11:49:42;;;;;;;2.70;0.80;;;;;;;;;;6208029;23;20164;-77
2021/10/23 11:52:07;;;;;;;3.27;1.10;;;;;;;;;;6210616;23;20473;-77
2021/10/23 11:54:41;;;;;;;7.43;2.13;;;;;;;;;;6209728;23;20477;-77
2021/10/23 11:57:06;;;;;;;6.77;1.57;;;;;;;;;;6212124;23;20170;-77
2021/10/23 11:59:32;;;;;;;5.63;1.40;;;;;;;;;;6209612;23;20387;-78
2021/10/23 12:01:57;;;;;;;5.57;1.30;;;;;;;;;;6208105;23;20225;-78
2021/10/23 12:04:30;;;;;;;2.40;1.13;;;;;;;;;;6207145;23;20853;-77
2021/10/23 12:06:55;;;;;;;8.30;1.63;;;;;;;;;;6183768;23;20174;-77
2021/10/23 12:09:23;;;;;;;6.70;1.70;;;;;;;;;;6211458;23;20840;-77
2021/10/23 12:12:18;;;;;;;4.67;1.50;;;;;;;;;;6184266;23;20670;-76
2021/10/23 12:14:43;;;;;;;3.40;1.10;;;;;;;;;;6196483;23;20393;-77
2021/10/23 12:17:08;;;;;;;2.97;1.27;;;;;;;;;;6204722;23;20371;-76
2021/10/23 12:19:38;;;;;;;3.50;1.17;;;;;;;;;;6183139;23;20481;-78
2021/10/23 12:22:03;;;;;;;2.50;0.90;;;;;;;;;;6210335;23;20252;-76
2021/10/23 12:25:01;;;;;;;6.07;1.33;;;;;;;;;;6182631;23;20411;-78
2021/10/23 12:27:27;;;;;;;3.40;1.30;;;;;;;;;;6173850;23;20155;-78
2021/10/23 12:29:55;;;;;;;5.63;1.60;;;;;;;;;;6211978;23;20370;-77
2021/10/23 12:32:26;;;;;;;6.37;1.60;;;;;;;;;;6212311;23;20442;-77
2021/10/23 12:34:52;;;;;;;9.30;2.20;;;;;;;;;;6212043;23;20405;-77
2021/10/23 12:37:26;;;;;;;8.73;1.80;;;;;;;;;;6212351;23;20374;-77
2021/10/23 12:40:10;;;;;;;6.33;1.70;;;;;;;;;;6214453;23;20148;-77
2021/10/23 12:42:36;;;;;;;5.30;1.70;;;;;;;;;;6213776;23;20926;-78
2021/10/23 12:45:02;;;;;;;7.97;2.40;;;;;;;;;;6187577;23;20387;-77
2021/10/23 12:47:28;;;;;;;7.53;2.63;;;;;;;;;;6214189;23;20445;-77
2021/10/23 12:49:53;;;;;;;5.33;2.33;;;;;;;;;;6210450;23;20398;-78
2021/10/23 12:52:18;;;;;;;6.33;1.90;;;;;;;;;;6212184;23;20143;-76
2021/10/23 12:54:43;;;;;;;4.40;1.43;;;;;;;;;;6212924;23;20626;-77
2021/10/23 12:57:08;;;;;;;13.27;2.33;;;;;;;;;;6212934;23;20144;-78
2021/10/23 12:59:34;;;;;;;5.97;1.90;;;;;;;;;;6213538;23;20164;-77
2021/10/23 13:02:00;;;;;;;11.70;2.40;;;;;;;;;;6212084;23;20172;-75
2021/10/23 13:04:25;;;;;;;5.23;1.73;;;;;;;;;;6209385;23;20586;-75
2021/10/23 13:06:50;;;;;;;3.80;1.43;;;;;;;;;;6209806;23;20425;-74
2021/10/23 13:09:15;;;;;;;6.00;1.17;;;;;;;;;;6213492;23;20183;-76
2021/10/23 13:11:41;;;;;;;7.77;1.60;;;;;;;;;;6213739;23;20147;-76
2021/10/23 13:14:06;;;;;;;9.13;1.60;;;;;;;;;;6213278;23;20175;-75
2021/10/23 13:16:32;;;;;;;6.17;1.50;;;;;;;;;;6212845;23;20487;-75
2021/10/23 13:18:57;;;;;;;7.97;1.97;;;;;;;;;;6213367;23;20167;-76
2021/10/23 13:21:22;;;;;;;7.37;1.53;;;;;;;;;;6212536;23;20176;-75
2021/10/23 13:23:48;;;;;;;8.20;1.83;;;;;;;;;;6211036;23;20144;-76
2021/10/23 13:26:13;;;;;;;11.90;1.50;;;;;;;;;;6211597;23;20140;-76
2021/10/23 13:28:38;;;;;;;3.30;1.20;;;;;;;;;;6212775;23;20638;-73
2021/10/23 13:31:03;;;;;;;6.53;1.70;;;;;;;;;;6208244;23;20775;-73
2021/10/23 13:33:30;;;;;;;4.07;1.10;;;;;;;;;;6211146;23;20159;-74
2021/10/23 13:35:55;;;;;;;3.30;1.57;;;;;;;;;;6208300;23;20154;-75
2021/10/23 13:38:20;;;;;;;7.57;1.60;;;;;;;;;;6207462;23;20418;-76
2021/10/23 13:40:46;;;;;;;6.00;1.67;;;;;;;;;;6212372;23;20637;-75
2021/10/23 13:43:11;;;;;;;5.67;1.50;;;;;;;;;;6212532;23;20582;-74
2021/10/23 13:45:37;;;;;;;4.30;1.40;;;;;;;;;;6212337;23;20369;-75
2021/10/23 13:48:02;;;;;;;3.83;1.63;;;;;;;;;;6212021;23;20180;-76
2021/10/23 13:50:27;;;;;;;6.27;1.70;;;;;;;;;;6212137;23;20286;-76
2021/10/23 13:52:52;;;;;;;9.17;1.50;;;;;;;;;;6212178;23;20461;-76
2021/10/23 13:55:17;;;;;;;4.10;1.63;;;;;;;;;;6212584;23;20230;-76
2021/10/23 13:57:43;;;;;;;5.53;1.23;;;;;;;;;;6211649;23;20168;-75
2021/10/23 14:00:09;;;;;;;1.80;1.00;;;;;;;;;;6209322;23;20629;-76
2021/10/23 14:02:36;;;;;;;5.93;1.57;;;;;;;;;;6211383;23;20144;-75
2021/10/23 14:05:02;;;;;;;3.10;1.30;;;;;;;;;;6209769;23;20608;-76
2021/10/23 14:07:27;;;;;;;1.97;1.23;;;;;;;;;;6212284;23;20434;-78
2021/10/23 14:09:52;;;;;;;4.07;1.33;;;;;;;;;;6212351;23;20163;-77
2021/10/23 14:12:18;;;;;;;4.73;1.20;;;;;;;;;;6213296;23;20151;-75
2021/10/23 14:14:43;;;;;;;4.70;1.40;;;;;;;;;;6212305;23;20600;-75
2021/10/23 14:17:09;;;;;;;3.33;1.37;;;;;;;;;;6209905;23;20441;-76
2021/10/23 14:19:35;;;;;;;3.33;1.37;;;;;;;;;;6212956;23;20174;-77
2021/10/23 14:22:00;;;;;;;3.97;1.30;;;;;;;;;;6212976;23;20488;-76
2021/10/23 14:24:26;;;;;;;8.23;1.73;;;;;;;;;;6210987;23;20398;-75
2021/10/23 14:26:54;;;;;;;7.17;1.40;;;;;;;;;;6211030;23;20592;-76
2021/10/23 14:29:19;;;;;;;2.77;1.47;;;;;;;;;;6212887;23;20394;-76
2021/10/23 14:31:44;;;;;;;4.57;1.47;;;;;;;;;;6212514;23;20371;-77
2021/10/23 14:34:10;;;;;;;5.43;2.00;;;;;;;;;;6212682;23;20152;-78
2021/10/23 14:36:35;;;;;;;7.80;1.77;;;;;;;;;;6212072;23;20156;-81
2021/10/23 14:39:00;;;;;;;4.33;1.53;;;;;;;;;;6211218;23;20171;-80
2021/10/23 14:41:26;;;;;;;3.83;1.63;;;;;;;;;;6213156;23;20258;-79
2021/10/23 14:43:53;;;;;;;4.30;1.10;;;;;;;;;;6211150;23;20144;-76
2021/10/23 14:46:18;;;;;;;4.70;1.77;;;;;;;;;;6211551;23;20155;-79
2021/10/23 14:48:44;;;;;;;5.97;1.73;;;;;;;;;;6210619;23;20386;-78
2021/10/23 14:51:09;;;;;;;3.80;1.40;;;;;;;;;;6211600;23;20155;-78